Time;durP1;ratioP1;P1;durP2;ratioP2;P2;SDS_P1;SDS_P2;PMS_P1;PMS_P2;Temp;Humidity;BMP_temperature;BMP_pressure;BME280_temperature;BME280_humidity;BME280_pressure;Samples;Min_cycle;Max_cycle;Signal;HPM_P1;HPM_P2
2022/07/12 00:01:07;;;;;;;4.87;4.00;;;17.80;99.90;;;;;;5065663;28;20206;-66
2022/07/12 00:03:34;;;;;;;3.63;3.40;;;17.50;99.90;;;;;;5067333;28;20229;-65
2022/07/12 00:06:01;;;;;;;4.47;4.00;;;16.70;99.90;;;;;;5065259;28;20251;-77
2022/07/12 00:08:27;;;;;;;3.97;3.73;;;-25.90;99.90;;;;;;5065519;28;20258;-70
2022/07/12 00:10:53;;;;;;;4.87;4.47;;;-23.50;99.90;;;;;;5067006;28;20172;-72
2022/07/12 00:13:19;;;;;;;4.70;4.20;;;-22.80;99.90;;;;;;5065146;28;20168;-69
2022/07/12 00:15:45;;;;;;;3.97;3.77;;;-25.60;99.90;;;;;;5066742;28;20635;-75
2022/07/12 00:18:11;;;;;;;6.23;3.70;;;-26.40;99.90;;;;;;5066376;28;20545;-75
2022/07/12 00:20:37;;;;;;;3.27;2.97;;;-30.80;99.90;;;;;;5065139;28;20179;-75
2022/07/12 00:23:04;;;;;;;3.70;3.40;;;-26.80;99.90;;;;;;5066669;28;20254;-76
2022/07/12 00:25:29;;;;;;;4.00;3.70;;;-25.10;99.90;;;;;;5066311;28;20164;-73
2022/07/12 00:27:55;;;;;;;4.30;4.00;;;-29.30;99.90;;;;;;5065047;28;20806;-73
2022/07/12 00:30:22;;;;;;;3.23;3.13;;;-23.70;99.90;;;;;;5067022;28;20634;-73
2022/07/12 00:32:48;;;;;;;3.93;3.70;;;-24.20;99.90;;;;;;5065255;28;20196;-73
2022/07/12 00:35:14;;;;;;;4.37;4.07;;;-26.40;99.90;;;;;;5065173;28;20626;-74
2022/07/12 00:37:40;;;;;;;3.80;3.50;;;-21.70;99.90;;;;;;5066647;28;20180;-70
2022/07/12 00:40:08;;;;;;;4.30;4.07;;;-27.60;99.90;;;;;;5065501;28;20520;-68
2022/07/12 00:42:40;;;;;;;4.10;3.80;;;-24.60;99.90;;;;;;5065178;28;20266;-73
2022/07/12 00:45:07;;;;;;;4.20;4.00;;;-27.10;99.90;;;;;;5065711;28;20257;-75
2022/07/12 00:47:37;;;;;;;4.50;4.20;;;-25.70;99.90;;;;;;5065693;28;20503;-73
2022/07/12 00:50:11;;;;;;;6.00;5.40;;;-23.30;99.90;;;;;;5063240;28;20221;-75
2022/07/12 00:52:38;;;;;;;4.20;3.87;;;-26.10;99.90;;;;;;5066509;28;20561;-74
2022/07/12 00:55:05;;;;;;;4.07;3.77;;;-26.30;99.90;;;;;;5064625;28;20171;-73
2022/07/12 00:57:35;;;;;;;4.57;4.30;;;-25.70;99.90;;;;;;5065497;28;20475;-75
2022/07/12 01:00:07;;;;;;;4.47;4.17;;;-27.00;99.90;;;;;;5066348;28;20208;-71
2022/07/12 01:02:34;;;;;;;4.83;4.33;;;-22.20;99.90;;;;;;5064370;28;20173;-71
2022/07/12 01:05:02;;;;;;;4.60;4.27;;;-20.10;99.90;;;;;;5063106;28;20176;-73
2022/07/12 01:07:28;;;;;;;4.30;4.10;;;-29.50;99.90;;;;;;5065855;28;20229;-77
2022/07/12 01:09:55;;;;;;;4.37;4.07;;;-25.50;99.90;;;;;;5065771;28;20200;-73
2022/07/12 01:12:22;;;;;;;5.00;3.80;;;-29.10;99.90;;;;;;5064131;28;20214;-74
2022/07/12 01:14:49;;;;;;;5.00;4.60;;;-30.30;99.90;;;;;;5065651;28;20260;-72
2022/07/12 01:17:20;;;;;;;4.43;4.07;;;-25.00;99.90;;;;;;5065652;28;20180;-73
2022/07/12 01:19:47;;;;;;;4.00;3.80;;;-21.40;99.90;;;;;;5063995;28;20211;-76
2022/07/12 01:22:17;;;;;;;4.33;3.93;;;-21.60;99.90;;;;;;5065254;28;20182;-72
2022/07/12 01:24:43;;;;;;;4.00;3.70;;;-25.60;99.90;;;;;;5066285;28;20172;-72
2022/07/12 01:27:10;;;;;;;6.03;5.23;;;-27.40;99.90;;;;;;5064553;28;20199;-73
2022/07/12 01:29:36;;;;;;;4.43;4.13;;;-24.20;99.90;;;;;;5064623;28;20168;-68
2022/07/12 01:34:50;;;;;;;3.90;3.60;;;-30.30;99.90;;;;;;5064204;28;20302;-74
2022/07/12 01:37:17;;;;;;;5.77;3.93;;;-28.60;99.90;;;;;;5064932;28;20220;-74
2022/07/12 01:39:44;;;;;;;4.73;4.33;;;-24.70;99.90;;;;;;5065936;28;20183;-75
2022/07/12 01:42:10;;;;;;;3.83;3.53;;;-22.10;99.90;;;;;;5064597;28;20255;-71
2022/07/12 01:44:36;;;;;;;4.10;3.80;;;-24.90;99.90;;;;;;5065856;28;20175;-69
2022/07/12 01:47:02;;;;;;;4.37;4.07;;;-27.20;99.90;;;;;;5070058;28;20567;-67
2022/07/12 01:49:28;;;;;;;5.67;4.43;;;-23.00;99.90;;;;;;5067877;28;20171;-77
2022/07/12 01:51:58;;;;;;;5.03;4.07;;;-19.20;99.90;;;;;;5069587;28;20601;-70
2022/07/12 01:54:27;;;;;;;10.53;4.50;;;-19.80;99.90;;;;;;5067873;28;20171;-72
2022/07/12 01:56:54;;;;;;;5.07;4.77;;;-28.90;99.90;;;;;;5069187;28;20164;-67
2022/07/12 01:59:20;;;;;;;4.63;4.33;;;-24.20;99.90;;;;;;5068259;28;20264;-68
2022/07/12 02:01:46;;;;;;;4.27;3.87;;;-29.10;99.90;;;;;;5067552;28;20526;-67
2022/07/12 02:04:16;;;;;;;3.93;3.73;;;-26.60;99.90;;;;;;5068813;28;20179;-65
2022/07/12 02:06:44;;;;;;;5.33;4.03;;;-19.30;99.90;;;;;;5069305;28;20183;-68
2022/07/12 02:09:13;;;;;;;4.93;4.53;;;-23.60;99.90;;;;;;5067674;28;20238;-65
2022/07/12 02:11:40;;;;;;;4.43;4.00;;;-19.30;99.90;;;;;;5068382;28;20171;-65
2022/07/12 02:14:06;;;;;;;5.30;4.80;;;-21.70;99.90;;;;;;5069575;28;20240;-65
2022/07/12 02:16:32;;;;;;;5.67;5.23;;;-26.80;99.90;;;;;;5067964;28;20176;-66
2022/07/12 02:18:58;;;;;;;5.40;5.10;;;-25.70;99.90;;;;;;5068082;28;20175;-65
2022/07/12 02:21:24;;;;;;;5.00;4.60;;;-23.70;99.90;;;;;;5069562;28;20179;-65
2022/07/12 02:23:50;;;;;;;5.80;5.27;;;-18.50;99.90;;;;;;5066600;28;20179;-66
2022/07/12 02:26:16;;;;;;;4.80;4.43;;;-24.30;99.90;;;;;;5067490;28;20587;-65
2022/07/12 02:28:43;;;;;;;6.07;5.60;;;-23.00;99.90;;;;;;5069177;28;20668;-65
2022/07/12 02:31:08;;;;;;;4.80;4.50;;;-23.80;99.90;;;;;;5066999;28;20260;-67
2022/07/12 02:33:35;;;;;;;4.87;4.57;;;-24.50;99.90;;;;;;5068496;28;20280;-64
2022/07/12 02:36:01;;;;;;;5.30;4.77;;;-25.30;99.90;;;;;;5068493;28;20164;-66
2022/07/12 02:38:26;;;;;;;4.50;4.20;;;-28.30;99.90;;;;;;5066421;28;20194;-65
2022/07/12 02:40:55;;;;;;;6.43;5.83;;;-23.60;99.90;;;;;;5067550;28;20202;-65
2022/07/12 02:43:25;;;;;;;5.63;4.73;;;-24.50;99.90;;;;;;5067286;28;20250;-65
2022/07/12 02:46:03;;;;;;;6.60;6.00;;;-18.80;99.90;;;;;;5065344;28;20182;-66
2022/07/12 02:48:28;;;;;;;4.53;4.23;;;-20.90;99.90;;;;;;5064592;28;20202;-65
2022/07/12 02:50:54;;;;;;;6.57;4.53;;;-23.70;99.90;;;;;;5067330;28;20583;-67
2022/07/12 02:53:20;;;;;;;4.97;4.47;;;-27.10;99.90;;;;;;5066847;28;20171;-65
2022/07/12 02:55:46;;;;;;;5.20;4.80;;;-26.40;99.90;;;;;;5067230;28;20172;-69
2022/07/12 02:58:12;;;;;;;5.23;4.83;;;-20.50;99.90;;;;;;5065602;28;20536;-65
2022/07/12 03:00:38;;;;;;;5.50;4.50;;;-19.50;99.90;;;;;;5066543;28;20172;-65
2022/07/12 03:03:07;;;;;;;6.27;4.93;;;-23.00;99.90;;;;;;5066129;28;20176;-65
2022/07/12 03:05:34;;;;;;;4.60;4.20;;;-20.90;99.90;;;;;;5065644;28;20583;-67
2022/07/12 03:08:00;;;;;;;5.43;4.93;;;-23.70;99.90;;;;;;5065257;28;20283;-65
2022/07/12 03:10:26;;;;;;;5.17;4.67;;;-18.50;99.90;;;;;;5067245;28;20184;-65
2022/07/12 03:12:52;;;;;;;7.77;5.27;;;-22.30;99.90;;;;;;5065413;28;20168;-65
2022/07/12 03:15:17;;;;;;;5.00;4.70;;;-21.70;99.90;;;;;;5066529;28;20518;-64
2022/07/12 03:17:43;;;;;;;4.63;4.23;;;-14.70;99.90;;;;;;5066724;28;20579;-65
2022/07/12 03:20:11;;;;;;;5.07;4.67;;;-21.50;99.90;;;;;;5065164;28;20606;-64
2022/07/12 03:22:38;;;;;;;4.87;4.57;;;-18.80;99.90;;;;;;5066943;28;20198;-64
2022/07/12 03:25:04;;;;;;;4.73;4.43;;;-22.30;99.90;;;;;;5066535;28;20207;-64
2022/07/12 03:27:33;;;;;;;4.80;4.50;;;-26.50;99.90;;;;;;5065019;28;20195;-65
2022/07/12 03:29:59;;;;;;;7.77;4.50;;;-21.80;99.90;;;;;;5066180;28;20182;-64
2022/07/12 03:32:25;;;;;;;7.13;4.63;;;-17.80;99.90;;;;;;5066589;28;20183;-65
2022/07/12 03:34:50;;;;;;;5.63;4.90;;;-22.60;99.90;;;;;;5064983;28;20164;-63
2022/07/12 03:39:48;;;;;;;4.13;3.87;;;-21.90;99.90;;;;;;5072676;28;21009;-66
2022/07/12 03:42:14;;;;;;;5.77;5.37;;;-23.20;99.90;;;;;;5072524;28;20182;-69
2022/07/12 03:44:40;;;;;;;4.83;4.43;;;-22.00;99.90;;;;;;5072296;28;20186;-66
2022/07/12 03:47:05;;;;;;;6.97;5.30;;;-26.90;99.90;;;;;;5059933;28;20191;-69
2022/07/12 03:49:31;;;;;;;6.70;4.97;;;-24.90;99.90;;;;;;5052532;28;20188;-66
2022/07/12 03:51:57;;;;;;;10.17;5.73;;;-27.50;99.90;;;;;;5052418;28;20242;-66
2022/07/12 03:54:23;;;;;;;7.93;6.40;;;-26.60;99.90;;;;;;5052309;28;20187;-66
2022/07/12 03:59:34;;;;;;;6.30;5.07;;;-23.40;99.90;;;;;;5051761;28;20226;-66
2022/07/12 04:02:01;;;;;;;5.30;4.90;;;-23.80;99.90;;;;;;5052256;28;20266;-66
2022/07/12 04:04:28;;;;;;;5.83;5.33;;;-20.00;99.90;;;;;;5052229;28;20251;-66
2022/07/12 04:06:53;;;;;;;5.80;5.40;;;-30.20;99.90;;;;;;5041076;28;20260;-65
2022/07/12 04:09:19;;;;;;;5.43;4.97;;;-31.10;99.90;;;;;;5052090;28;20763;-65
2022/07/12 04:11:45;;;;;;;5.23;4.83;;;-23.50;99.90;;;;;;5052169;28;20188;-66
2022/07/12 04:14:11;;;;;;;4.10;3.90;;;-32.10;99.90;;;;;;5041131;28;20199;-65
2022/07/12 04:16:37;;;;;;;4.87;4.57;;;-25.70;99.90;;;;;;5049148;28;20462;-66
2022/07/12 04:19:04;;;;;;;4.90;4.60;;;-20.10;99.90;;;;;;5051720;28;20663;-66
2022/07/12 04:21:33;;;;;;;5.70;5.27;;;-26.20;99.90;;;;;;5041206;28;20598;-67
2022/07/12 04:23:59;;;;;;;5.47;5.03;;;-20.20;99.90;;;;;;5049258;28;20251;-66
2022/07/12 04:26:24;;;;;;;5.23;4.93;;;-23.60;99.90;;;;;;5050675;28;20262;-66
2022/07/12 04:28:50;;;;;;;4.97;4.50;;;-20.70;99.90;;;;;;5040957;28;20606;-65
2022/07/12 04:31:16;;;;;;;5.60;5.07;;;-20.90;99.90;;;;;;5042767;28;20246;-66
2022/07/12 04:33:42;;;;;;;8.40;5.57;;;-23.70;99.90;;;;;;5041048;28;20184;-69
2022/07/12 04:36:07;;;;;;;5.43;5.03;;;-25.80;99.90;;;;;;5051780;28;20629;-70
2022/07/12 04:38:33;;;;;;;6.70;5.40;;;-23.50;99.90;;;;;;5051359;28;20290;-67
2022/07/12 04:40:59;;;;;;;5.50;5.10;;;-23.20;99.90;;;;;;5048764;28;20176;-66
2022/07/12 04:43:25;;;;;;;5.43;5.03;;;-23.80;99.90;;;;;;5051488;28;20226;-66
2022/07/12 04:45:51;;;;;;;4.90;4.50;;;-22.60;99.90;;;;;;5040962;28;20603;-65
2022/07/12 04:48:17;;;;;;;4.97;4.40;;;-20.90;99.90;;;;;;5042386;28;20168;-66
2022/07/12 04:50:44;;;;;;;16.80;5.23;;;-20.40;99.90;;;;;;5030131;28;20188;-66
2022/07/12 04:53:10;;;;;;;5.00;4.70;;;-25.90;99.90;;;;;;5029634;28;20608;-67
2022/07/12 04:55:36;;;;;;;4.67;3.90;;;-23.60;99.90;;;;;;5027115;28;20194;-69
2022/07/12 04:58:02;;;;;;;5.87;5.47;;;-31.10;99.90;;;;;;5028306;28;20204;-65
2022/07/12 05:00:28;;;;;;;5.90;5.30;;;-33.30;99.90;;;;;;5027981;28;20482;-66
2022/07/12 05:02:54;;;;;;;5.90;5.30;;;-34.00;99.90;;;;;;5026101;28;20183;-66
2022/07/12 05:05:19;;;;;;;6.23;5.47;;;-32.30;99.90;;;;;;5027754;28;20231;-66
2022/07/12 05:07:45;;;;;;;6.37;5.77;;;-26.60;99.90;;;;;;5027420;28;20193;-65
2022/07/12 05:10:11;;;;;;;6.27;5.73;;;-35.80;99.90;;;;;;5027340;28;20181;-65
2022/07/12 05:12:37;;;;;;;5.83;5.17;;;-28.70;99.90;;;;;;5028667;28;20492;-67
2022/07/12 05:15:05;;;;;;;6.27;5.77;;;-35.90;99.90;;;;;;5026731;28;20612;-67
2022/07/12 05:17:30;;;;;;;6.30;5.07;;;-25.50;99.90;;;;;;5027503;28;20596;-65
2022/07/12 05:19:56;;;;;;;7.07;5.67;;;-32.20;99.90;;;;;;5028537;28;20197;-65
2022/07/12 05:22:22;;;;;;;5.87;5.37;;;-31.60;99.90;;;;;;5026563;28;20248;-66
2022/07/12 05:24:48;;;;;;;5.67;5.27;;;-29.80;99.90;;;;;;5027709;28;20173;-65
2022/07/12 05:27:14;;;;;;;5.30;5.00;;;-40.00;99.90;;;;;;5027765;28;20177;-65
2022/07/12 05:29:40;;;;;;;5.93;5.40;;;-28.80;99.90;;;;;;5037350;28;20185;-67
2022/07/12 05:32:06;;;;;;;5.10;4.67;;;-27.40;99.90;;;;;;5037268;28;20238;-67
2022/07/12 05:34:32;;;;;;;5.13;4.73;;;-40.00;99.90;;;;;;5037116;28;20177;-69
2022/07/12 05:36:58;;;;;;;7.97;5.87;;;-36.60;99.90;;;;;;5036083;28;20180;-67
2022/07/12 05:39:24;;;;;;;5.53;5.03;;;-35.40;99.90;;;;;;5036823;28;20299;-68
2022/07/12 05:41:50;;;;;;;5.93;5.53;;;-40.00;99.90;;;;;;5036948;28;20199;-67
2022/07/12 05:44:18;;;;;;;5.67;5.30;;;-40.00;99.90;;;;;;5037061;28;20256;-68
2022/07/12 05:46:47;;;;;;;6.97;6.27;;;-40.00;99.90;;;;;;5034274;28;20485;-67
2022/07/12 05:49:13;;;;;;;5.33;5.03;;;-40.00;99.90;;;;;;5036841;28;20210;-69
2022/07/12 05:54:23;;;;;;;6.47;5.60;;;-40.00;99.90;;;;;;5033787;28;20234;-69
2022/07/12 05:56:50;;;;;;;8.73;5.20;;;-40.00;99.90;;;;;;5021635;28;20185;-68
2022/07/12 05:59:17;;;;;;;6.47;5.70;;;-40.00;99.90;;;;;;5028291;28;20558;-68
2022/07/12 06:01:44;;;;;;;7.00;6.40;;;-40.00;99.90;;;;;;5034580;28;20238;-67
2022/07/12 06:04:10;;;;;;;6.97;6.43;;;-40.00;99.90;;;;;;5036687;28;20176;-68
2022/07/12 06:06:36;;;;;;;6.33;5.77;;;-40.00;99.90;;;;;;5036579;28;20180;-69
2022/07/12 06:09:02;;;;;;;6.23;5.73;;;-40.00;99.90;;;;;;5036469;28;20184;-68
2022/07/12 06:11:28;;;;;;;6.40;5.90;;;-40.00;99.90;;;;;;5036593;28;20576;-68
2022/07/12 06:13:54;;;;;;;6.30;5.80;;;-40.00;99.90;;;;;;5026663;28;20234;-70
2022/07/12 06:16:20;;;;;;;7.97;6.63;;;-40.00;99.90;;;;;;5025839;28;20196;-67
2022/07/12 06:18:45;;;;;;;7.17;6.60;;;-40.00;99.90;;;;;;5025148;28;20221;-72
2022/07/12 06:21:11;;;;;;;8.07;7.20;;;-40.00;99.90;;;;;;5035887;28;20208;-67
2022/07/12 06:23:37;;;;;;;8.20;7.47;;;-40.00;99.90;;;;;;5036139;28;20177;-68
2022/07/12 06:26:03;;;;;;;8.43;7.40;;;-40.00;99.90;;;;;;5036135;28;20180;-68
2022/07/12 06:28:28;;;;;;;7.27;6.57;;;-40.00;99.90;;;;;;5027055;28;20751;-68
2022/07/12 06:30:54;;;;;;;7.43;6.70;;;-40.00;99.90;;;;;;5026284;28;20182;-71
2022/07/12 06:33:20;;;;;;;8.50;7.70;;;-40.00;99.90;;;;;;5025521;28;20187;-67
2022/07/12 06:35:46;;;;;;;7.93;7.33;;;-40.00;99.90;;;;;;5026058;28;20186;-67
2022/07/12 06:38:11;;;;;;;7.83;7.23;;;-40.00;99.90;;;;;;5025210;28;20201;-69
2022/07/12 06:40:37;;;;;;;7.67;7.07;;;-40.00;99.90;;;;;;5025850;28;20216;-72
2022/07/12 06:43:12;;;;;;;7.17;6.57;;;-40.00;99.90;;;;;;5027208;28;20204;-68
2022/07/12 06:45:38;;;;;;;6.03;5.63;;;-40.00;99.90;;;;;;5026420;28;20543;-68
2022/07/12 06:48:05;;;;;;;6.53;6.03;;;-40.00;99.90;;;;;;5024820;28;20264;-71
2022/07/12 06:50:31;;;;;;;6.73;6.20;;;-40.00;99.90;;;;;;5026736;28;20181;-66
2022/07/12 06:52:57;;;;;;;6.83;6.20;;;-40.00;99.90;;;;;;5025211;28;20200;-71
2022/07/12 06:55:23;;;;;;;6.73;6.13;;;-40.00;99.90;;;;;;5024203;28;20488;-69
2022/07/12 06:57:49;;;;;;;6.07;5.57;;;-40.00;99.90;;;;;;5026781;28;20200;-72
2022/07/12 07:00:15;;;;;;;8.13;7.53;;;-40.00;99.90;;;;;;5025677;28;20200;-67
2022/07/12 07:02:41;;;;;;;6.67;6.23;;;-40.00;99.90;;;;;;5034573;28;20173;-74
2022/07/12 07:05:08;;;;;;;8.20;7.00;;;-40.00;99.90;;;;;;5035881;28;20484;-78
2022/07/12 07:07:34;;;;;;;7.23;6.63;;;-40.00;99.90;;;;;;5035174;28;20173;-78
2022/07/12 07:10:00;;;;;;;6.53;6.10;;;-40.00;99.90;;;;;;5035767;28;20711;-78
2022/07/12 07:12:25;;;;;;;6.67;6.07;;;-40.00;99.90;;;;;;5035225;28;20204;-79
2022/07/12 07:14:51;;;;;;;6.60;6.20;;;-40.00;99.30;;;;;;5035683;28;20251;-79
2022/07/12 07:17:17;;;;;;;7.13;6.43;;;-40.00;99.90;;;;;;5035173;28;20184;-79
2022/07/12 07:19:44;;;;;;;5.87;5.47;;;-40.00;99.90;;;;;;5035673;28;20209;-79
2022/07/12 07:22:10;;;;;;;6.63;6.13;;;-40.00;99.90;;;;;;5022953;28;20173;-78
2022/07/12 07:24:36;;;;;;;7.67;7.10;;;-40.00;99.60;;;;;;5026240;28;20204;-78
2022/07/12 07:27:02;;;;;;;6.33;5.93;;;-40.00;98.40;;;;;;5025736;28;20255;-72
2022/07/12 07:32:12;;;;;;;5.40;5.10;;;-40.00;97.60;;;;;;5032664;28;20187;-72
2022/07/12 07:34:38;;;;;;;6.10;5.67;;;-40.00;97.60;;;;;;5035442;28;20180;-74
2022/07/12 07:37:04;;;;;;;6.93;6.23;;;-40.00;97.70;;;;;;5034979;28;20179;-79
2022/07/12 07:39:30;;;;;;;5.90;5.50;;;-40.00;98.20;;;;;;5034946;28;20235;-76
2022/07/12 07:41:56;;;;;;;6.97;6.37;;;-40.00;97.40;;;;;;5034170;28;20192;-73
2022/07/12 07:44:21;;;;;;;7.93;7.27;;;-40.00;97.50;;;;;;5035395;28;20251;-79
2022/07/12 07:46:47;;;;;;;6.13;5.60;;;-40.00;97.60;;;;;;5035065;28;20208;-76
2022/07/12 07:49:13;;;;;;;5.63;5.33;;;-40.00;97.90;;;;;;5024474;28;20178;-79
2022/07/12 07:51:39;;;;;;;7.17;6.67;;;-40.00;96.50;;;;;;5024925;28;20175;-72
2022/07/12 07:54:04;;;;;;;6.37;5.97;;;-40.00;95.70;;;;;;5023567;28;20630;-78
2022/07/12 07:56:30;;;;;;;6.50;6.07;;;-40.00;95.70;;;;;;5026123;28;20580;-67
2022/07/12 07:58:56;;;;;;;5.97;5.33;;;-40.00;95.30;;;;;;5024308;28;20189;-73
2022/07/12 08:01:42;;;;;;;6.60;6.10;;;-40.00;95.80;;;;;;5024158;28;20218;-67
2022/07/12 08:04:09;;;;;;;5.93;5.53;;;-40.00;95.70;;;;;;5034203;28;20177;-68
2022/07/12 08:06:36;;;;;;;6.10;5.57;;;-40.00;95.80;;;;;;5031973;28;20176;-71
2022/07/12 08:09:02;;;;;;;6.30;5.90;;;-40.00;96.30;;;;;;5034663;28;20216;-67
2022/07/12 08:11:28;;;;;;;8.00;7.40;;;-40.00;96.10;;;;;;5034995;28;20169;-74
2022/07/12 08:13:54;;;;;;;6.00;5.57;;;-40.00;96.70;;;;;;5033767;28;20183;-68
2022/07/12 08:16:19;;;;;;;6.97;6.37;;;-40.00;94.50;;;;;;5033845;28;20192;-68
2022/07/12 08:18:45;;;;;;;5.87;5.47;;;-40.00;94.90;;;;;;5024627;28;20202;-68
2022/07/12 08:21:11;;;;;;;6.70;6.23;;;-40.00;94.10;;;;;;5025832;28;20177;-76
2022/07/12 08:23:37;;;;;;;5.37;5.07;;;-40.00;94.50;;;;;;5023903;28;20185;-68
2022/07/12 08:26:03;;;;;;;5.97;5.57;;;-40.00;93.90;;;;;;5037631;28;20165;-73
2022/07/12 08:28:29;;;;;;;5.53;5.20;;;-40.00;94.40;;;;;;5038428;28;20176;-73
2022/07/12 08:30:55;;;;;;;6.47;5.80;;;-40.00;92.70;;;;;;5027570;28;20444;-68
2022/07/12 08:33:21;;;;;;;6.43;6.03;;;-40.00;92.40;;;;;;5029038;28;20169;-73
2022/07/12 08:35:47;;;;;;;6.73;6.17;;;-40.00;91.80;;;;;;5028710;28;20200;-71
2022/07/12 08:38:15;;;;;;;6.80;5.90;;;-40.00;92.20;;;;;;5027025;28;20209;-75
2022/07/12 08:40:42;;;;;;;6.73;6.17;;;-40.00;93.10;;;;;;5028756;28;20172;-69
2022/07/12 08:43:08;;;;;;;5.37;4.97;;;-40.00;93.40;;;;;;5028715;28;20176;-72
2022/07/12 08:45:34;;;;;;;5.33;4.93;;;-40.00;92.30;;;;;;5026357;28;20260;-70
2022/07/12 08:48:00;;;;;;;6.20;5.70;;;-40.00;92.90;;;;;;5028945;28;20181;-72
2022/07/12 08:50:27;;;;;;;6.33;5.83;;;-40.00;91.90;;;;;;5026916;28;20200;-69
2022/07/12 08:52:54;;;;;;;6.17;5.43;;;-40.00;92.00;;;;;;5038061;28;20184;-69
2022/07/12 08:55:28;;;;;;;5.90;5.30;;;-40.00;90.80;;;;;;5037110;28;20179;-67
2022/07/12 08:57:59;;;;;;;5.93;5.43;;;-40.00;90.90;;;;;;5037759;28;20211;-69
2022/07/12 09:00:26;;;;;;;6.43;5.93;;;-40.00;90.10;;;;;;5035943;28;20180;-68
2022/07/12 09:03:00;;;;;;;6.57;5.97;;;-40.00;85.80;;;;;;5037654;28;20200;-69
2022/07/12 09:05:28;;;;;;;5.47;5.17;;;-40.00;87.30;;;;;;5036045;28;20598;-68
2022/07/12 09:08:08;;;;;;;5.10;4.80;;;-40.00;85.50;;;;;;5037659;28;20188;-68
2022/07/12 09:11:04;;;;;;;4.67;3.97;;;-40.00;86.80;;;;;;5036850;28;20172;-68
2022/07/12 09:13:50;;;;;;;4.63;4.27;;;-40.00;84.30;;;;;;5028563;28;20185;-75
2022/07/12 09:16:20;;;;;;;4.63;4.27;;;-40.00;80.80;;;;;;5037288;28;20208;-69
2022/07/12 09:18:47;;;;;;;5.03;4.73;;;-40.00;79.60;;;;;;5036250;28;20228;-71
2022/07/12 09:21:31;;;;;;;6.67;5.30;;;-40.00;78.00;;;;;;5037850;28;20191;-71
2022/07/12 09:23:58;;;;;;;5.30;4.90;;;-40.00;77.80;;;;;;5037039;28;20199;-69
2022/07/12 09:26:33;;;;;;;4.50;4.13;;;-40.00;78.20;;;;;;5037370;28;20200;-71
2022/07/12 09:29:06;;;;;;;4.77;4.37;;;-40.00;76.40;;;;;;5037647;28;20176;-69
2022/07/12 09:37:40;;;;;;;5.83;5.43;;;-40.00;73.40;;;;;;5037196;28;20271;-67
2022/07/12 09:40:08;;;;;;;3.93;3.70;;;-40.00;74.30;;;;;;5037056;28;20256;-68
2022/07/12 09:42:34;;;;;;;5.83;3.70;;;-40.00;76.90;;;;;;5019842;28;20255;-69
2022/07/12 09:45:00;;;;;;;4.67;4.33;;;-40.00;72.30;;;;;;5026091;28;20182;-69
2022/07/12 09:47:27;;;;;;;4.33;3.93;;;-40.00;72.30;;;;;;5036792;28;20492;-69
2022/07/12 09:49:53;;;;;;;5.67;3.97;;;-40.00;72.80;;;;;;5037119;28;20227;-69
2022/07/12 09:52:26;;;;;;;5.20;4.90;;;-40.00;72.60;;;;;;5037186;28;20208;-68
2022/07/12 09:54:54;;;;;;;4.57;4.23;;;-40.00;73.20;;;;;;5037146;28;20246;-69
2022/07/12 09:57:25;;;;;;;4.83;4.37;;;-40.00;73.00;;;;;;5036946;28;20187;-74
2022/07/12 09:59:54;;;;;;;5.40;4.90;;;-40.00;75.30;;;;;;5027023;28;20263;-72
2022/07/12 10:02:21;;;;;;;4.50;4.20;;;-40.00;72.10;;;;;;5027840;28;20177;-72
2022/07/12 10:04:47;;;;;;;5.17;4.40;;;-40.00;72.70;;;;;;5026299;28;20176;-74
2022/07/12 10:07:15;;;;;;;4.80;3.17;;;-40.00;73.60;;;;;;5026857;28;20168;-74
2022/07/12 10:10:00;;;;;;;4.00;3.80;;;-40.00;66.50;;;;;;5027819;28;20173;-73
2022/07/12 10:12:27;;;;;;;3.80;3.60;;;-40.00;67.20;;;;;;5034094;28;20185;-74
2022/07/12 10:15:01;;;;;;;4.53;4.23;;;-40.00;65.10;;;;;;5035389;28;20188;-69
2022/07/12 10:17:28;;;;;;;4.33;4.07;;;-40.00;68.30;;;;;;5057704;28;20369;-68
2022/07/12 10:20:14;;;;;;;3.93;3.73;;;-40.00;67.00;;;;;;5036418;28;20196;-71
2022/07/12 10:22:40;;;;;;;5.70;4.33;;;-40.00;64.50;;;;;;5035660;28;20168;-68
2022/07/12 10:25:26;;;;;;;4.33;3.93;;;-40.00;66.90;;;;;;5035337;28;20446;-68
2022/07/12 10:27:52;;;;;;;4.07;3.87;;;-40.00;66.10;;;;;;5034215;28;20271;-68
2022/07/12 10:30:20;;;;;;;5.60;4.33;;;-40.00;66.00;;;;;;5036816;28;20157;-69
2022/07/12 10:32:48;;;;;;;6.60;4.43;;;-40.00;64.80;;;;;;5033822;28;20298;-68
2022/07/12 10:35:19;;;;;;;3.83;3.57;;;-40.00;63.00;;;;;;5036215;28;20173;-71
2022/07/12 10:38:12;;;;;;;5.30;4.90;;;-40.00;63.00;;;;;;5035877;28;20185;-69
2022/07/12 10:40:39;;;;;;;4.23;3.93;;;-40.00;62.30;;;;;;5035845;28;20180;-74
2022/07/12 10:43:04;;;;;;;10.20;4.83;;;-40.00;64.60;;;;;;5036014;28;20181;-68
2022/07/12 10:45:38;;;;;;;4.20;3.93;;;-40.00;64.90;;;;;;5035569;28;20177;-69
2022/07/12 10:48:08;;;;;;;4.37;4.00;;;-40.00;63.00;;;;;;5034427;28;20283;-70
2022/07/12 10:50:48;;;;;;;4.50;4.20;;;-40.00;64.20;;;;;;5035769;28;20192;-68
2022/07/12 10:53:21;;;;;;;3.43;3.13;;;-40.00;62.10;;;;;;5034190;28;20319;-69
2022/07/12 10:56:19;;;;;;;6.83;4.13;;;-40.00;60.20;;;;;;5035880;28;20173;-68
2022/07/12 10:58:46;;;;;;;6.20;5.43;;;-40.00;62.20;;;;;;5035036;28;20287;-68
2022/07/12 11:01:15;;;;;;;4.47;4.23;;;-40.00;61.80;;;;;;5035793;28;20259;-69
2022/07/12 11:03:43;;;;;;;3.83;3.10;;;-40.00;61.50;;;;;;5036008;28;20184;-68
2022/07/12 11:06:14;;;;;;;3.57;2.93;;;-40.00;61.60;;;;;;5035570;28;20176;-68
2022/07/12 11:08:55;;;;;;;3.77;3.50;;;-40.00;59.30;;;;;;5035527;28;20215;-68
2022/07/12 11:11:23;;;;;;;3.77;3.47;;;-40.00;58.70;;;;;;5034470;28;20184;-68
2022/07/12 11:13:49;;;;;;;5.57;3.37;;;-40.00;54.80;;;;;;5035360;28;20177;-68
2022/07/12 11:16:16;;;;;;;3.70;3.30;;;-40.00;54.00;;;;;;5035554;28;20172;-68
2022/07/12 11:18:43;;;;;;;3.30;3.00;;;-40.00;56.50;;;;;;5034709;28;20224;-68
2022/07/12 11:21:09;;;;;;;3.87;3.67;;;-40.00;57.70;;;;;;5035540;28;20550;-70
2022/07/12 11:23:35;;;;;;;4.77;3.00;;;-40.00;58.10;;;;;;5035437;28;20171;-70
2022/07/12 11:26:02;;;;;;;4.03;3.70;;;-40.00;53.80;;;;;;5035502;28;20177;-68
2022/07/12 11:28:29;;;;;;;3.30;3.10;;;-40.00;55.20;;;;;;5035035;28;20227;-68
2022/07/12 11:31:07;;;;;;;3.30;3.10;;;-40.00;55.00;;;;;;5035259;28;20218;-68
2022/07/12 11:33:35;;;;;;;3.17;2.77;;;-40.00;54.80;;;;;;5033057;28;20233;-68
2022/07/12 11:36:07;;;;;;;3.47;3.27;;;-40.00;52.80;;;;;;5035166;28;20172;-68
2022/07/12 11:38:34;;;;;;;3.83;3.50;;;-40.00;53.30;;;;;;5031440;28;20215;-68
2022/07/12 11:41:02;;;;;;;3.13;2.97;;;-40.00;55.60;;;;;;5035221;28;20181;-68
2022/07/12 11:43:29;;;;;;;2.83;2.73;;;-40.00;52.00;;;;;;5034869;28;20177;-70
2022/07/12 11:45:56;;;;;;;3.80;3.50;;;-40.00;49.30;;;;;;5034970;28;20275;-69
2022/07/12 11:48:23;;;;;;;3.30;2.63;;;-40.00;49.80;;;;;;5035089;28;20920;-68
2022/07/12 11:50:53;;;;;;;4.43;3.60;;;-40.00;51.50;;;;;;5035263;28;20209;-69
2022/07/12 11:53:26;;;;;;;3.90;3.43;;;-40.00;49.50;;;;;;5035178;28;20181;-67
2022/07/12 11:55:57;;;;;;;4.90;2.53;;;-40.00;51.10;;;;;;5035152;28;20264;-72
2022/07/12 11:58:25;;;;;;;3.93;3.27;;;-40.00;50.40;;;;;;5024231;28;20194;-68
2022/07/12 12:00:52;;;;;;;4.88;2.85;;;-40.00;48.60;;;;;;5028622;28;20262;-69
2022/07/12 12:03:20;;;;;;;3.42;3.10;;;-40.00;47.90;;;;;;5028920;28;20177;-69
2022/07/12 12:05:54;;;;;;;2.47;2.38;;;-40.00;48.80;;;;;;5028352;28;20191;-68
2022/07/12 12:08:20;;;;;;;2.75;2.65;;;-40.00;42.20;;;;;;5037371;28;20231;-69
2022/07/12 12:10:55;;;;;;;2.92;2.83;;;-40.00;45.10;;;;;;5037836;28;20180;-67
2022/07/12 12:13:22;;;;;;;3.03;2.83;;;-40.00;43.00;;;;;;5036813;28;20175;-68
2022/07/12 12:16:00;;;;;;;3.58;2.85;;;-38.60;39.40;;;;;;5038757;28;20184;-73
2022/07/12 12:18:34;;;;;;;4.32;3.53;;;-23.00;41.60;;;;;;5037697;28;20199;-68
2022/07/12 12:21:03;;;;;;;3.47;3.20;;;-27.10;40.50;;;;;;5035758;28;20173;-68
2022/07/12 12:23:29;;;;;;;3.67;3.38;;;-24.80;41.80;;;;;;5038669;28;20169;-68
2022/07/12 12:26:17;;;;;;;3.47;3.15;;;-20.10;44.90;;;;;;5038258;28;20646;-68
2022/07/12 12:28:52;;;;;;;2.70;2.50;;;-8.40;50.50;;;;;;5036797;28;20185;-71
2022/07/12 12:31:20;;;;;;;2.88;2.78;;;0.90;53.80;;;;;;5036314;28;20583;-78
2022/07/12 12:33:56;;;;;;;3.38;3.17;;;5.90;52.80;;;;;;5037566;28;20553;-74
2022/07/12 12:36:26;;;;;;;2.63;2.30;;;6.40;54.60;;;;;;5036521;28;20176;-73
2022/07/12 12:38:53;;;;;;;3.88;3.00;;;7.40;52.20;;;;;;5038023;28;20299;-77
2022/07/12 12:41:22;;;;;;;3.72;3.42;;;8.10;56.60;;;;;;5037982;28;20173;-71
2022/07/12 12:43:56;;;;;;;6.00;3.10;;;9.00;55.10;;;;;;5037261;28;20177;-80
2022/07/12 12:46:21;;;;;;;8.65;3.10;;;7.00;53.00;;;;;;5036088;28;21013;-76
2022/07/12 12:48:48;;;;;;;3.53;3.22;;;7.90;55.40;;;;;;5038307;28;20259;-77
2022/07/12 12:51:14;;;;;;;3.38;3.17;;;10.60;56.20;;;;;;5037990;28;20176;-70
2022/07/12 12:53:42;;;;;;;3.42;3.13;;;9.50;51.40;;;;;;5038079;28;20180;-73
2022/07/12 12:56:16;;;;;;;4.55;3.20;;;8.90;52.10;;;;;;5037803;28;20183;-73
2022/07/12 12:58:42;;;;;;;3.58;3.30;;;9.70;53.50;;;;;;5035815;28;20532;-74
2022/07/12 13:01:09;;;;;;;3.72;3.53;;;9.20;54.40;;;;;;5037768;28;20169;-69